sensor_id;sensor_type;location;lat;lon;timestamp;P1;durP1;ratioP1;P2;durP2;ratioP2
11228;SDS011;5671;47.936;8.716;2024-03-07T00:00:14;9.40;;;8.50;;
11228;SDS011;5671;47.936;8.716;2024-03-07T00:02:43;9.77;;;8.87;;
11228;SDS011;5671;47.936;8.716;2024-03-07T00:05:10;7.67;;;6.97;;
11228;SDS011;5671;47.936;8.716;2024-03-07T00:07:38;7.70;;;7.10;;
11228;SDS011;5671;47.936;8.716;2024-03-07T00:10:05;7.90;;;7.20;;
11228;SDS011;5671;47.936;8.716;2024-03-07T00:12:33;9.67;;;8.77;;
11228;SDS011;5671;47.936;8.716;2024-03-07T00:15:03;8.50;;;7.80;;
11228;SDS011;5671;47.936;8.716;2024-03-07T00:17:30;7.10;;;6.50;;
11228;SDS011;5671;47.936;8.716;2024-03-07T00:19:56;8.47;;;7.67;;
11228;SDS011;5671;47.936;8.716;2024-03-07T00:22:23;8.67;;;7.93;;
11228;SDS011;5671;47.936;8.716;2024-03-07T00:24:51;8.90;;;8.10;;
11228;SDS011;5671;47.936;8.716;2024-03-07T00:27:18;8.90;;;8.00;;
11228;SDS011;5671;47.936;8.716;2024-03-07T00:29:46;8.80;;;8.00;;
11228;SDS011;5671;47.936;8.716;2024-03-07T00:32:19;8.90;;;8.10;;
11228;SDS011;5671;47.936;8.716;2024-03-07T00:34:47;9.50;;;8.60;;
11228;SDS011;5671;47.936;8.716;2024-03-07T00:37:14;8.97;;;8.17;;
11228;SDS011;5671;47.936;8.716;2024-03-07T00:39:42;9.57;;;8.67;;
11228;SDS011;5671;47.936;8.716;2024-03-07T00:42:09;9.10;;;8.30;;
11228;SDS011;5671;47.936;8.716;2024-03-07T00:44:37;9.00;;;8.13;;
11228;SDS011;5671;47.936;8.716;2024-03-07T00:47:04;10.10;;;9.20;;
11228;SDS011;5671;47.936;8.716;2024-03-07T00:49:32;8.77;;;8.03;;
11228;SDS011;5671;47.936;8.716;2024-03-07T00:51:59;9.30;;;8.40;;
11228;SDS011;5671;47.936;8.716;2024-03-07T00:54:26;9.03;;;8.23;;
11228;SDS011;5671;47.936;8.716;2024-03-07T00:56:52;8.90;;;8.10;;
11228;SDS011;5671;47.936;8.716;2024-03-07T00:59:20;9.50;;;8.60;;
11228;SDS011;5671;47.936;8.716;2024-03-07T01:01:47;9.53;;;8.73;;
11228;SDS011;5671;47.936;8.716;2024-03-07T01:04:15;9.67;;;8.77;;
11228;SDS011;5671;47.936;8.716;2024-03-07T01:06:43;10.43;;;9.53;;
11228;SDS011;5671;47.936;8.716;2024-03-07T01:09:10;10.83;;;9.83;;
11228;SDS011;5671;47.936;8.716;2024-03-07T01:11:42;10.80;;;9.80;;
11228;SDS011;5671;47.936;8.716;2024-03-07T01:14:10;11.57;;;10.30;;
11228;SDS011;5671;47.936;8.716;2024-03-07T01:16:37;11.13;;;10.03;;
11228;SDS011;5671;47.936;8.716;2024-03-07T01:19:03;11.40;;;10.37;;
11228;SDS011;5671;47.936;8.716;2024-03-07T01:21:31;10.43;;;9.43;;
11228;SDS011;5671;47.936;8.716;2024-03-07T01:24:00;10.07;;;9.07;;
11228;SDS011;5671;47.936;8.716;2024-03-07T01:26:27;9.83;;;8.93;;
11228;SDS011;5671;47.936;8.716;2024-03-07T01:28:55;10.43;;;9.53;;
11228;SDS011;5671;47.936;8.716;2024-03-07T01:31:22;12.10;;;10.97;;
11228;SDS011;5671;47.936;8.716;2024-03-07T01:33:49;12.33;;;11.13;;
11228;SDS011;5671;47.936;8.716;2024-03-07T01:36:16;10.67;;;9.67;;
11228;SDS011;5671;47.936;8.716;2024-03-07T01:38:43;12.27;;;10.70;;
11228;SDS011;5671;47.936;8.716;2024-03-07T01:41:11;13.33;;;12.13;;
11228;SDS011;5671;47.936;8.716;2024-03-07T01:43:39;12.00;;;10.83;;
11228;SDS011;5671;47.936;8.716;2024-03-07T01:46:06;12.50;;;10.90;;
11228;SDS011;5671;47.936;8.716;2024-03-07T01:48:33;12.20;;;10.90;;
11228;SDS011;5671;47.936;8.716;2024-03-07T01:51:01;12.13;;;10.93;;
11228;SDS011;5671;47.936;8.716;2024-03-07T01:53:29;13.47;;;11.83;;
11228;SDS011;5671;47.936;8.716;2024-03-07T01:55:56;15.37;;;12.73;;
11228;SDS011;5671;47.936;8.716;2024-03-07T01:58:26;13.63;;;12.10;;
11228;SDS011;5671;47.936;8.716;2024-03-07T02:00:53;13.77;;;12.37;;
11228;SDS011;5671;47.936;8.716;2024-03-07T02:03:20;14.13;;;12.63;;
11228;SDS011;5671;47.936;8.716;2024-03-07T02:05:47;13.63;;;12.27;;
11228;SDS011;5671;47.936;8.716;2024-03-07T02:08:13;15.77;;;12.97;;
11228;SDS011;5671;47.936;8.716;2024-03-07T02:10:40;15.37;;;13.03;;
11228;SDS011;5671;47.936;8.716;2024-03-07T02:13:07;15.30;;;13.70;;
11228;SDS011;5671;47.936;8.716;2024-03-07T02:15:35;14.30;;;12.80;;
11228;SDS011;5671;47.936;8.716;2024-03-07T02:18:02;13.67;;;12.27;;
11228;SDS011;5671;47.936;8.716;2024-03-07T02:20:30;11.47;;;10.37;;
11228;SDS011;5671;47.936;8.716;2024-03-07T02:22:59;11.03;;;9.83;;
11228;SDS011;5671;47.936;8.716;2024-03-07T02:25:25;11.43;;;9.87;;
11228;SDS011;5671;47.936;8.716;2024-03-07T02:27:52;10.77;;;9.67;;
11228;SDS011;5671;47.936;8.716;2024-03-07T02:30:19;11.50;;;9.77;;
11228;SDS011;5671;47.936;8.716;2024-03-07T02:32:46;11.13;;;10.00;;
11228;SDS011;5671;47.936;8.716;2024-03-07T02:35:17;10.53;;;9.50;;
11228;SDS011;5671;47.936;8.716;2024-03-07T02:37:44;10.53;;;9.47;;
11228;SDS011;5671;47.936;8.716;2024-03-07T02:40:13;10.47;;;9.40;;
11228;SDS011;5671;47.936;8.716;2024-03-07T02:42:41;11.60;;;10.17;;
11228;SDS011;5671;47.936;8.716;2024-03-07T02:45:08;11.93;;;10.10;;
11228;SDS011;5671;47.936;8.716;2024-03-07T02:47:39;10.70;;;9.33;;
11228;SDS011;5671;47.936;8.716;2024-03-07T02:50:08;13.73;;;9.43;;
11228;SDS011;5671;47.936;8.716;2024-03-07T02:52:35;10.57;;;9.47;;
11228;SDS011;5671;47.936;8.716;2024-03-07T02:55:02;11.33;;;10.13;;
11228;SDS011;5671;47.936;8.716;2024-03-07T02:57:31;11.07;;;9.97;;
11228;SDS011;5671;47.936;8.716;2024-03-07T02:59:58;11.20;;;10.07;;
11228;SDS011;5671;47.936;8.716;2024-03-07T03:02:25;11.07;;;9.97;;
11228;SDS011;5671;47.936;8.716;2024-03-07T03:04:52;13.03;;;11.63;;
11228;SDS011;5671;47.936;8.716;2024-03-07T03:07:20;12.63;;;11.33;;
11228;SDS011;5671;47.936;8.716;2024-03-07T03:09:47;14.30;;;11.83;;
11228;SDS011;5671;47.936;8.716;2024-03-07T03:12:14;14.33;;;12.83;;
11228;SDS011;5671;47.936;8.716;2024-03-07T03:14:42;14.70;;;12.97;;
11228;SDS011;5671;47.936;8.716;2024-03-07T03:17:09;16.90;;;14.23;;
11228;SDS011;5671;47.936;8.716;2024-03-07T03:19:36;16.07;;;14.17;;
11228;SDS011;5671;47.936;8.716;2024-03-07T03:22:03;16.10;;;14.17;;
11228;SDS011;5671;47.936;8.716;2024-03-07T03:24:30;19.40;;;15.57;;
11228;SDS011;5671;47.936;8.716;2024-03-07T03:26:57;17.97;;;15.13;;
11228;SDS011;5671;47.936;8.716;2024-03-07T03:29:24;17.83;;;15.03;;
11228;SDS011;5671;47.936;8.716;2024-03-07T03:31:55;18.70;;;15.70;;
11228;SDS011;5671;47.936;8.716;2024-03-07T03:34:22;20.63;;;16.20;;
11228;SDS011;5671;47.936;8.716;2024-03-07T03:36:49;20.17;;;16.93;;
11228;SDS011;5671;47.936;8.716;2024-03-07T03:39:16;19.53;;;15.87;;
11228;SDS011;5671;47.936;8.716;2024-03-07T03:41:45;21.90;;;16.93;;
11228;SDS011;5671;47.936;8.716;2024-03-07T03:44:12;19.60;;;16.27;;
11228;SDS011;5671;47.936;8.716;2024-03-07T03:46:39;21.90;;;18.37;;
11228;SDS011;5671;47.936;8.716;2024-03-07T03:49:08;22.60;;;17.93;;
11228;SDS011;5671;47.936;8.716;2024-03-07T03:51:35;21.87;;;17.60;;
11228;SDS011;5671;47.936;8.716;2024-03-07T03:54:02;22.93;;;18.27;;
11228;SDS011;5671;47.936;8.716;2024-03-07T03:56:28;22.23;;;18.10;;
11228;SDS011;5671;47.936;8.716;2024-03-07T03:58:57;20.57;;;17.33;;
11228;SDS011;5671;47.936;8.716;2024-03-07T04:01:23;23.30;;;17.80;;
11228;SDS011;5671;47.936;8.716;2024-03-07T04:03:50;23.50;;;17.90;;
11228;SDS011;5671;47.936;8.716;2024-03-07T04:06:18;23.20;;;18.30;;
11228;SDS011;5671;47.936;8.716;2024-03-07T04:08:45;22.30;;;18.33;;
11228;SDS011;5671;47.936;8.716;2024-03-07T04:11:12;21.90;;;18.43;;
11228;SDS011;5671;47.936;8.716;2024-03-07T04:13:39;20.57;;;17.27;;
11228;SDS011;5671;47.936;8.716;2024-03-07T04:16:06;22.27;;;18.23;;
11228;SDS011;5671;47.936;8.716;2024-03-07T04:18:33;22.53;;;18.17;;
11228;SDS011;5671;47.936;8.716;2024-03-07T04:21:00;25.33;;;20.90;;
11228;SDS011;5671;47.936;8.716;2024-03-07T04:23:28;22.80;;;19.70;;
11228;SDS011;5671;47.936;8.716;2024-03-07T04:25:55;24.77;;;20.40;;
11228;SDS011;5671;47.936;8.716;2024-03-07T04:28:22;26.40;;;21.17;;
11228;SDS011;5671;47.936;8.716;2024-03-07T04:30:49;25.43;;;20.63;;
11228;SDS011;5671;47.936;8.716;2024-03-07T04:33:18;25.63;;;21.17;;
11228;SDS011;5671;47.936;8.716;2024-03-07T04:35:45;25.00;;;21.03;;
11228;SDS011;5671;47.936;8.716;2024-03-07T04:38:12;24.23;;;20.67;;
11228;SDS011;5671;47.936;8.716;2024-03-07T04:40:41;26.40;;;21.47;;
11228;SDS011;5671;47.936;8.716;2024-03-07T04:43:08;25.07;;;20.43;;
11228;SDS011;5671;47.936;8.716;2024-03-07T04:45:35;26.00;;;21.00;;
11228;SDS011;5671;47.936;8.716;2024-03-07T04:48:03;23.33;;;19.70;;
11228;SDS011;5671;47.936;8.716;2024-03-07T04:50:31;26.87;;;20.60;;
11228;SDS011;5671;47.936;8.716;2024-03-07T04:52:57;25.30;;;20.00;;
11228;SDS011;5671;47.936;8.716;2024-03-07T04:55:24;24.43;;;19.40;;
11228;SDS011;5671;47.936;8.716;2024-03-07T04:57:52;21.90;;;19.43;;
11228;SDS011;5671;47.936;8.716;2024-03-07T05:00:19;20.97;;;18.47;;
11228;SDS011;5671;47.936;8.716;2024-03-07T05:02:46;23.77;;;18.77;;
11228;SDS011;5671;47.936;8.716;2024-03-07T05:05:15;21.33;;;18.10;;
11228;SDS011;5671;47.936;8.716;2024-03-07T05:07:47;23.20;;;18.27;;
11228;SDS011;5671;47.936;8.716;2024-03-07T05:10:14;23.43;;;18.80;;
11228;SDS011;5671;47.936;8.716;2024-03-07T05:12:41;21.47;;;18.27;;
11228;SDS011;5671;47.936;8.716;2024-03-07T05:15:09;22.27;;;18.27;;
11228;SDS011;5671;47.936;8.716;2024-03-07T05:17:36;19.60;;;17.50;;
11228;SDS011;5671;47.936;8.716;2024-03-07T05:20:04;21.07;;;17.57;;
11228;SDS011;5671;47.936;8.716;2024-03-07T05:22:35;17.73;;;15.77;;
11228;SDS011;5671;47.936;8.716;2024-03-07T05:25:04;21.30;;;16.07;;
11228;SDS011;5671;47.936;8.716;2024-03-07T05:27:31;19.63;;;17.37;;
11228;SDS011;5671;47.936;8.716;2024-03-07T05:29:58;18.43;;;16.43;;
11228;SDS011;5671;47.936;8.716;2024-03-07T05:32:27;20.90;;;17.07;;
11228;SDS011;5671;47.936;8.716;2024-03-07T05:34:53;17.93;;;16.03;;
11228;SDS011;5671;47.936;8.716;2024-03-07T05:37:21;20.03;;;17.03;;
11228;SDS011;5671;47.936;8.716;2024-03-07T05:39:48;18.93;;;16.47;;
11228;SDS011;5671;47.936;8.716;2024-03-07T05:42:15;17.53;;;15.73;;
11228;SDS011;5671;47.936;8.716;2024-03-07T05:44:42;17.83;;;16.03;;
11228;SDS011;5671;47.936;8.716;2024-03-07T05:47:09;19.00;;;16.73;;
11228;SDS011;5671;47.936;8.716;2024-03-07T05:49:40;21.70;;;16.50;;
11228;SDS011;5671;47.936;8.716;2024-03-07T05:52:07;17.43;;;15.10;;
11228;SDS011;5671;47.936;8.716;2024-03-07T05:54:33;17.77;;;15.83;;
11228;SDS011;5671;47.936;8.716;2024-03-07T05:57:01;19.27;;;15.43;;
11228;SDS011;5671;47.936;8.716;2024-03-07T05:59:28;18.00;;;15.17;;
11228;SDS011;5671;47.936;8.716;2024-03-07T06:01:56;18.10;;;15.93;;
11228;SDS011;5671;47.936;8.716;2024-03-07T06:04:22;20.17;;;16.00;;
11228;SDS011;5671;47.936;8.716;2024-03-07T06:06:51;18.20;;;16.23;;
11228;SDS011;5671;47.936;8.716;2024-03-07T06:09:19;19.03;;;16.37;;
11228;SDS011;5671;47.936;8.716;2024-03-07T06:11:47;17.63;;;15.33;;
11228;SDS011;5671;47.936;8.716;2024-03-07T06:14:15;17.00;;;15.20;;
11228;SDS011;5671;47.936;8.716;2024-03-07T06:16:42;17.77;;;15.70;;
11228;SDS011;5671;47.936;8.716;2024-03-07T06:19:09;16.63;;;14.50;;
11228;SDS011;5671;47.936;8.716;2024-03-07T06:21:37;17.33;;;15.53;;
11228;SDS011;5671;47.936;8.716;2024-03-07T06:24:07;17.57;;;15.53;;
11228;SDS011;5671;47.936;8.716;2024-03-07T06:26:36;17.43;;;15.20;;
11228;SDS011;5671;47.936;8.716;2024-03-07T06:29:11;17.23;;;15.27;;
11228;SDS011;5671;47.936;8.716;2024-03-07T06:31:38;19.17;;;15.53;;
11228;SDS011;5671;47.936;8.716;2024-03-07T06:34:05;18.43;;;15.63;;
11228;SDS011;5671;47.936;8.716;2024-03-07T06:36:33;17.57;;;15.77;;
11228;SDS011;5671;47.936;8.716;2024-03-07T06:39:00;19.20;;;16.47;;
11228;SDS011;5671;47.936;8.716;2024-03-07T06:41:29;21.37;;;17.83;;
11228;SDS011;5671;47.936;8.716;2024-03-07T06:43:56;17.40;;;15.60;;
11228;SDS011;5671;47.936;8.716;2024-03-07T06:46:23;19.57;;;17.10;;
11228;SDS011;5671;47.936;8.716;2024-03-07T06:48:50;18.80;;;16.57;;
11228;SDS011;5671;47.936;8.716;2024-03-07T06:51:17;21.23;;;16.33;;
11228;SDS011;5671;47.936;8.716;2024-03-07T06:53:44;19.03;;;16.33;;
11228;SDS011;5671;47.936;8.716;2024-03-07T06:56:11;20.50;;;17.27;;
11228;SDS011;5671;47.936;8.716;2024-03-07T06:58:40;22.23;;;18.13;;
11228;SDS011;5671;47.936;8.716;2024-03-07T07:01:07;21.33;;;17.57;;
11228;SDS011;5671;47.936;8.716;2024-03-07T07:03:35;21.57;;;17.63;;
11228;SDS011;5671;47.936;8.716;2024-03-07T07:06:02;19.67;;;16.90;;
11228;SDS011;5671;47.936;8.716;2024-03-07T07:08:31;21.80;;;17.80;;
11228;SDS011;5671;47.936;8.716;2024-03-07T07:10:58;21.47;;;17.60;;
11228;SDS011;5671;47.936;8.716;2024-03-07T07:13:24;20.20;;;17.00;;
11228;SDS011;5671;47.936;8.716;2024-03-07T07:15:53;21.53;;;17.57;;
11228;SDS011;5671;47.936;8.716;2024-03-07T07:18:19;20.87;;;18.03;;
11228;SDS011;5671;47.936;8.716;2024-03-07T07:20:48;22.17;;;18.10;;
11228;SDS011;5671;47.936;8.716;2024-03-07T07:23:17;20.40;;;17.43;;
11228;SDS011;5671;47.936;8.716;2024-03-07T07:25:43;21.93;;;18.43;;
11228;SDS011;5671;47.936;8.716;2024-03-07T07:28:11;22.53;;;18.93;;
11228;SDS011;5671;47.936;8.716;2024-03-07T07:30:38;24.23;;;19.57;;
11228;SDS011;5671;47.936;8.716;2024-03-07T07:33:06;21.70;;;19.40;;
11228;SDS011;5671;47.936;8.716;2024-03-07T07:35:33;20.93;;;18.23;;
11228;SDS011;5671;47.936;8.716;2024-03-07T07:38:00;24.17;;;19.00;;
11228;SDS011;5671;47.936;8.716;2024-03-07T07:40:27;23.30;;;19.57;;
11228;SDS011;5671;47.936;8.716;2024-03-07T07:42:56;22.20;;;19.73;;
11228;SDS011;5671;47.936;8.716;2024-03-07T07:45:23;23.03;;;19.03;;
11228;SDS011;5671;47.936;8.716;2024-03-07T07:47:51;24.77;;;21.00;;
11228;SDS011;5671;47.936;8.716;2024-03-07T07:50:20;22.87;;;20.37;;
11228;SDS011;5671;47.936;8.716;2024-03-07T07:52:48;23.70;;;19.47;;
11228;SDS011;5671;47.936;8.716;2024-03-07T07:55:16;23.07;;;19.80;;
11228;SDS011;5671;47.936;8.716;2024-03-07T07:57:44;26.63;;;20.70;;
11228;SDS011;5671;47.936;8.716;2024-03-07T08:00:14;22.90;;;19.70;;
11228;SDS011;5671;47.936;8.716;2024-03-07T08:02:48;22.90;;;18.93;;
11228;SDS011;5671;47.936;8.716;2024-03-07T08:05:16;24.07;;;21.33;;
11228;SDS011;5671;47.936;8.716;2024-03-07T08:07:45;24.93;;;21.00;;
11228;SDS011;5671;47.936;8.716;2024-03-07T08:10:13;23.33;;;19.93;;
11228;SDS011;5671;47.936;8.716;2024-03-07T08:12:40;26.30;;;21.47;;
11228;SDS011;5671;47.936;8.716;2024-03-07T08:15:08;23.37;;;20.73;;
11228;SDS011;5671;47.936;8.716;2024-03-07T08:17:38;23.03;;;20.63;;
11228;SDS011;5671;47.936;8.716;2024-03-07T08:20:08;23.20;;;20.77;;
11228;SDS011;5671;47.936;8.716;2024-03-07T08:22:36;23.57;;;20.23;;
11228;SDS011;5671;47.936;8.716;2024-03-07T08:25:05;23.97;;;20.57;;
11228;SDS011;5671;47.936;8.716;2024-03-07T08:27:34;24.33;;;20.27;;
11228;SDS011;5671;47.936;8.716;2024-03-07T08:30:02;25.73;;;20.07;;
11228;SDS011;5671;47.936;8.716;2024-03-07T08:32:31;25.47;;;21.57;;
11228;SDS011;5671;47.936;8.716;2024-03-07T08:34:59;24.13;;;21.47;;
11228;SDS011;5671;47.936;8.716;2024-03-07T08:37:26;26.27;;;21.53;;
11228;SDS011;5671;47.936;8.716;2024-03-07T08:39:53;25.57;;;22.63;;
11228;SDS011;5671;47.936;8.716;2024-03-07T08:42:21;27.10;;;23.27;;
11228;SDS011;5671;47.936;8.716;2024-03-07T08:44:48;24.57;;;21.60;;
11228;SDS011;5671;47.936;8.716;2024-03-07T08:47:15;26.93;;;22.43;;
11228;SDS011;5671;47.936;8.716;2024-03-07T08:49:42;26.50;;;22.80;;
11228;SDS011;5671;47.936;8.716;2024-03-07T08:52:08;28.67;;;23.43;;
11228;SDS011;5671;47.936;8.716;2024-03-07T08:54:35;29.37;;;23.43;;
11228;SDS011;5671;47.936;8.716;2024-03-07T08:57:02;26.37;;;23.53;;
11228;SDS011;5671;47.936;8.716;2024-03-07T08:59:33;33.03;;;22.47;;
11228;SDS011;5671;47.936;8.716;2024-03-07T09:02:00;24.07;;;21.40;;
11228;SDS011;5671;47.936;8.716;2024-03-07T09:04:27;26.70;;;23.30;;
11228;SDS011;5671;47.936;8.716;2024-03-07T09:06:56;28.93;;;22.83;;
11228;SDS011;5671;47.936;8.716;2024-03-07T09:09:23;25.43;;;22.50;;
11228;SDS011;5671;47.936;8.716;2024-03-07T09:11:50;24.77;;;21.83;;
11228;SDS011;5671;47.936;8.716;2024-03-07T09:14:17;23.30;;;20.23;;
11228;SDS011;5671;47.936;8.716;2024-03-07T09:16:45;24.40;;;21.10;;
11228;SDS011;5671;47.936;8.716;2024-03-07T09:19:13;28.00;;;23.03;;
11228;SDS011;5671;47.936;8.716;2024-03-07T09:21:45;28.87;;;22.73;;
11228;SDS011;5671;47.936;8.716;2024-03-07T09:24:11;30.57;;;24.20;;
11228;SDS011;5671;47.936;8.716;2024-03-07T09:26:40;31.27;;;24.20;;
11228;SDS011;5671;47.936;8.716;2024-03-07T09:29:07;29.30;;;23.43;;
11228;SDS011;5671;47.936;8.716;2024-03-07T09:31:35;27.93;;;23.60;;
11228;SDS011;5671;47.936;8.716;2024-03-07T09:34:06;28.77;;;22.57;;
11228;SDS011;5671;47.936;8.716;2024-03-07T09:36:33;30.27;;;22.67;;
11228;SDS011;5671;47.936;8.716;2024-03-07T09:39:01;28.77;;;22.67;;
11228;SDS011;5671;47.936;8.716;2024-03-07T09:41:28;29.10;;;23.83;;
11228;SDS011;5671;47.936;8.716;2024-03-07T09:43:55;29.73;;;23.80;;
11228;SDS011;5671;47.936;8.716;2024-03-07T09:46:24;29.23;;;23.30;;
11228;SDS011;5671;47.936;8.716;2024-03-07T09:48:51;31.13;;;23.93;;
11228;SDS011;5671;47.936;8.716;2024-03-07T09:51:20;30.67;;;23.10;;
11228;SDS011;5671;47.936;8.716;2024-03-07T09:53:48;32.27;;;25.57;;
11228;SDS011;5671;47.936;8.716;2024-03-07T09:56:16;29.67;;;24.17;;
11228;SDS011;5671;47.936;8.716;2024-03-07T09:58:46;32.60;;;23.33;;
11228;SDS011;5671;47.936;8.716;2024-03-07T10:01:16;31.40;;;23.37;;
11228;SDS011;5671;47.936;8.716;2024-03-07T10:03:45;28.20;;;23.60;;
11228;SDS011;5671;47.936;8.716;2024-03-07T10:06:13;28.17;;;23.13;;
11228;SDS011;5671;47.936;8.716;2024-03-07T10:08:42;24.67;;;20.47;;
11228;SDS011;5671;47.936;8.716;2024-03-07T10:11:10;26.70;;;22.60;;
11228;SDS011;5671;47.936;8.716;2024-03-07T10:13:37;28.70;;;22.43;;
11228;SDS011;5671;47.936;8.716;2024-03-07T10:16:04;26.23;;;21.33;;
11228;SDS011;5671;47.936;8.716;2024-03-07T10:18:33;26.13;;;21.87;;
11228;SDS011;5671;47.936;8.716;2024-03-07T10:21:07;24.17;;;20.60;;
11228;SDS011;5671;47.936;8.716;2024-03-07T10:23:34;24.73;;;21.17;;
11228;SDS011;5671;47.936;8.716;2024-03-07T10:26:04;24.83;;;20.93;;
11228;SDS011;5671;47.936;8.716;2024-03-07T10:28:31;23.27;;;19.00;;
11228;SDS011;5671;47.936;8.716;2024-03-07T10:30:59;23.03;;;19.97;;
11228;SDS011;5671;47.936;8.716;2024-03-07T10:33:26;22.47;;;19.90;;
11228;SDS011;5671;47.936;8.716;2024-03-07T10:35:58;22.57;;;19.57;;
11228;SDS011;5671;47.936;8.716;2024-03-07T10:38:25;22.40;;;18.70;;
11228;SDS011;5671;47.936;8.716;2024-03-07T10:40:53;23.10;;;20.27;;
11228;SDS011;5671;47.936;8.716;2024-03-07T10:43:22;22.87;;;20.47;;
11228;SDS011;5671;47.936;8.716;2024-03-07T10:45:51;21.60;;;18.87;;
11228;SDS011;5671;47.936;8.716;2024-03-07T10:48:21;23.60;;;19.70;;
11228;SDS011;5671;47.936;8.716;2024-03-07T10:50:58;24.00;;;19.47;;
11228;SDS011;5671;47.936;8.716;2024-03-07T10:53:37;24.50;;;20.57;;
11228;SDS011;5671;47.936;8.716;2024-03-07T10:56:21;24.03;;;18.93;;
11228;SDS011;5671;47.936;8.716;2024-03-07T10:58:58;24.33;;;19.87;;
11228;SDS011;5671;47.936;8.716;2024-03-07T11:01:44;26.20;;;20.27;;
11228;SDS011;5671;47.936;8.716;2024-03-07T11:04:15;25.13;;;21.43;;
11228;SDS011;5671;47.936;8.716;2024-03-07T11:06:43;25.63;;;21.10;;
11228;SDS011;5671;47.936;8.716;2024-03-07T11:09:11;25.50;;;21.70;;
11228;SDS011;5671;47.936;8.716;2024-03-07T11:11:39;24.10;;;20.77;;
11228;SDS011;5671;47.936;8.716;2024-03-07T11:14:08;27.37;;;20.57;;
11228;SDS011;5671;47.936;8.716;2024-03-07T11:16:37;25.90;;;21.27;;
11228;SDS011;5671;47.936;8.716;2024-03-07T11:19:18;27.03;;;22.10;;
11228;SDS011;5671;47.936;8.716;2024-03-07T11:21:46;26.97;;;20.40;;
11228;SDS011;5671;47.936;8.716;2024-03-07T11:24:22;27.10;;;21.20;;
11228;SDS011;5671;47.936;8.716;2024-03-07T11:26:50;21.90;;;18.83;;
11228;SDS011;5671;47.936;8.716;2024-03-07T11:32:08;20.47;;;18.00;;
11228;SDS011;5671;47.936;8.716;2024-03-07T11:34:37;19.77;;;17.77;;
11228;SDS011;5671;47.936;8.716;2024-03-07T11:37:06;22.23;;;18.23;;
11228;SDS011;5671;47.936;8.716;2024-03-07T11:39:42;19.77;;;17.57;;
11228;SDS011;5671;47.936;8.716;2024-03-07T11:42:18;20.63;;;16.67;;
11228;SDS011;5671;47.936;8.716;2024-03-07T11:44:48;18.97;;;16.90;;
11228;SDS011;5671;47.936;8.716;2024-03-07T11:47:16;20.00;;;17.23;;
11228;SDS011;5671;47.936;8.716;2024-03-07T11:49:43;20.93;;;17.87;;
11228;SDS011;5671;47.936;8.716;2024-03-07T11:52:13;19.47;;;17.37;;
11228;SDS011;5671;47.936;8.716;2024-03-07T11:54:41;22.83;;;17.60;;
11228;SDS011;5671;47.936;8.716;2024-03-07T11:57:12;20.67;;;18.47;;
11228;SDS011;5671;47.936;8.716;2024-03-07T11:59:40;20.57;;;18.47;;
11228;SDS011;5671;47.936;8.716;2024-03-07T12:02:11;20.73;;;17.73;;
11228;SDS011;5671;47.936;8.716;2024-03-07T12:04:40;19.27;;;17.20;;
11228;SDS011;5671;47.936;8.716;2024-03-07T12:07:07;18.30;;;16.30;;
11228;SDS011;5671;47.936;8.716;2024-03-07T12:09:36;17.97;;;15.80;;
11228;SDS011;5671;47.936;8.716;2024-03-07T12:12:03;17.80;;;14.47;;
11228;SDS011;5671;47.936;8.716;2024-03-07T12:14:31;19.77;;;17.20;;
11228;SDS011;5671;47.936;8.716;2024-03-07T12:16:59;19.40;;;17.30;;
11228;SDS011;5671;47.936;8.716;2024-03-07T12:19:27;21.73;;;17.60;;
11228;SDS011;5671;47.936;8.716;2024-03-07T12:21:57;22.00;;;17.70;;
11228;SDS011;5671;47.936;8.716;2024-03-07T12:24:26;22.23;;;16.67;;
11228;SDS011;5671;47.936;8.716;2024-03-07T12:26:52;17.73;;;15.90;;
11228;SDS011;5671;47.936;8.716;2024-03-07T12:29:30;19.80;;;16.47;;
11228;SDS011;5671;47.936;8.716;2024-03-07T12:31:57;17.40;;;15.50;;
11228;SDS011;5671;47.936;8.716;2024-03-07T12:34:25;19.27;;;15.23;;
11228;SDS011;5671;47.936;8.716;2024-03-07T12:36:55;17.37;;;14.87;;
11228;SDS011;5671;47.936;8.716;2024-03-07T12:39:23;17.23;;;14.90;;
11228;SDS011;5671;47.936;8.716;2024-03-07T12:42:00;17.17;;;15.37;;
11228;SDS011;5671;47.936;8.716;2024-03-07T12:44:38;19.50;;;16.30;;
11228;SDS011;5671;47.936;8.716;2024-03-07T12:47:08;17.57;;;15.77;;
11228;SDS011;5671;47.936;8.716;2024-03-07T12:49:37;17.67;;;15.63;;
11228;SDS011;5671;47.936;8.716;2024-03-07T12:52:04;18.30;;;15.70;;
11228;SDS011;5671;47.936;8.716;2024-03-07T12:54:33;26.33;;;19.87;;
11228;SDS011;5671;47.936;8.716;2024-03-07T12:57:02;18.93;;;16.47;;
11228;SDS011;5671;47.936;8.716;2024-03-07T12:59:30;19.67;;;16.03;;
11228;SDS011;5671;47.936;8.716;2024-03-07T13:01:57;19.93;;;16.30;;
11228;SDS011;5671;47.936;8.716;2024-03-07T13:04:24;20.30;;;16.83;;
11228;SDS011;5671;47.936;8.716;2024-03-07T13:06:54;21.67;;;18.10;;
11228;SDS011;5671;47.936;8.716;2024-03-07T13:09:42;18.17;;;15.87;;
11228;SDS011;5671;47.936;8.716;2024-03-07T13:12:09;21.17;;;16.80;;
11228;SDS011;5671;47.936;8.716;2024-03-07T13:14:39;20.73;;;15.83;;
11228;SDS011;5671;47.936;8.716;2024-03-07T13:17:08;20.57;;;15.83;;
11228;SDS011;5671;47.936;8.716;2024-03-07T13:19:35;21.53;;;16.77;;
11228;SDS011;5671;47.936;8.716;2024-03-07T13:22:03;21.70;;;17.83;;
11228;SDS011;5671;47.936;8.716;2024-03-07T13:24:31;20.67;;;16.70;;
11228;SDS011;5671;47.936;8.716;2024-03-07T13:27:01;20.00;;;17.00;;
11228;SDS011;5671;47.936;8.716;2024-03-07T13:29:28;19.60;;;16.07;;
11228;SDS011;5671;47.936;8.716;2024-03-07T13:31:55;18.23;;;16.33;;
11228;SDS011;5671;47.936;8.716;2024-03-07T13:34:22;18.67;;;16.27;;
11228;SDS011;5671;47.936;8.716;2024-03-07T13:36:51;18.70;;;16.23;;
11228;SDS011;5671;47.936;8.716;2024-03-07T13:39:18;20.40;;;17.10;;
11228;SDS011;5671;47.936;8.716;2024-03-07T13:41:45;23.27;;;16.40;;
11228;SDS011;5671;47.936;8.716;2024-03-07T13:44:14;20.73;;;17.73;;
11228;SDS011;5671;47.936;8.716;2024-03-07T13:46:42;22.60;;;18.00;;
11228;SDS011;5671;47.936;8.716;2024-03-07T13:49:09;19.67;;;17.57;;
11228;SDS011;5671;47.936;8.716;2024-03-07T13:51:38;21.10;;;17.80;;
11228;SDS011;5671;47.936;8.716;2024-03-07T13:54:15;21.83;;;18.00;;
11228;SDS011;5671;47.936;8.716;2024-03-07T13:57:01;19.40;;;17.30;;
11228;SDS011;5671;47.936;8.716;2024-03-07T13:59:54;20.10;;;17.87;;
11228;SDS011;5671;47.936;8.716;2024-03-07T14:02:41;21.90;;;18.70;;
11228;SDS011;5671;47.936;8.716;2024-03-07T14:05:42;24.50;;;18.87;;
11228;SDS011;5671;47.936;8.716;2024-03-07T14:14:30;20.10;;;16.87;;
11228;SDS011;5671;47.936;8.716;2024-03-07T14:17:35;19.93;;;16.83;;
11228;SDS011;5671;47.936;8.716;2024-03-07T14:23:24;20.37;;;18.27;;
11228;SDS011;5671;47.936;8.716;2024-03-07T14:29:12;19.17;;;17.03;;
11228;SDS011;5671;47.936;8.716;2024-03-07T14:31:47;22.47;;;17.73;;
11228;SDS011;5671;47.936;8.716;2024-03-07T14:34:18;22.20;;;16.70;;
11228;SDS011;5671;47.936;8.716;2024-03-07T14:36:56;21.33;;;16.53;;
11228;SDS011;5671;47.936;8.716;2024-03-07T14:39:28;20.63;;;16.93;;
11228;SDS011;5671;47.936;8.716;2024-03-07T14:42:00;18.33;;;16.43;;
11228;SDS011;5671;47.936;8.716;2024-03-07T14:44:29;17.83;;;15.63;;
11228;SDS011;5671;47.936;8.716;2024-03-07T14:46:58;18.80;;;16.67;;
11228;SDS011;5671;47.936;8.716;2024-03-07T14:49:28;18.10;;;15.77;;
11228;SDS011;5671;47.936;8.716;2024-03-07T14:51:55;19.77;;;16.70;;
11228;SDS011;5671;47.936;8.716;2024-03-07T14:54:22;19.40;;;17.30;;
11228;SDS011;5671;47.936;8.716;2024-03-07T14:56:50;19.97;;;17.43;;
11228;SDS011;5671;47.936;8.716;2024-03-07T14:59:17;18.17;;;15.83;;
11228;SDS011;5671;47.936;8.716;2024-03-07T15:01:46;19.37;;;17.03;;